sensor_id;sensor_type;location;lat;lon;timestamp;P1;durP1;ratioP1;P2;durP2;ratioP2
47715;SDS011;33476;50.984;3.538;2023-02-15T00:01:33;26.85;;;13.93;;
47715;SDS011;33476;50.984;3.538;2023-02-15T00:04:00;25.52;;;14.48;;
47715;SDS011;33476;50.984;3.538;2023-02-15T00:06:25;26.98;;;14.63;;
47715;SDS011;33476;50.984;3.538;2023-02-15T00:08:51;28.38;;;14.48;;
47715;SDS011;33476;50.984;3.538;2023-02-15T00:11:18;27.60;;;14.48;;
47715;SDS011;33476;50.984;3.538;2023-02-15T00:14:07;31.90;;;15.15;;
47715;SDS011;33476;50.984;3.538;2023-02-15T00:16:37;31.40;;;15.45;;
47715;SDS011;33476;50.984;3.538;2023-02-15T00:19:04;29.52;;;14.52;;
47715;SDS011;33476;50.984;3.538;2023-02-15T00:21:30;30.10;;;15.63;;
47715;SDS011;33476;50.984;3.538;2023-02-15T00:23:57;30.90;;;15.77;;
47715;SDS011;33476;50.984;3.538;2023-02-15T00:26:24;32.20;;;15.30;;
47715;SDS011;33476;50.984;3.538;2023-02-15T00:28:50;31.45;;;15.43;;
47715;SDS011;33476;50.984;3.538;2023-02-15T00:31:15;26.52;;;14.73;;
47715;SDS011;33476;50.984;3.538;2023-02-15T00:33:41;31.95;;;15.65;;
47715;SDS011;33476;50.984;3.538;2023-02-15T00:36:07;28.95;;;15.05;;
47715;SDS011;33476;50.984;3.538;2023-02-15T00:38:33;32.78;;;15.07;;
47715;SDS011;33476;50.984;3.538;2023-02-15T00:41:00;30.73;;;16.17;;
47715;SDS011;33476;50.984;3.538;2023-02-15T00:43:29;33.25;;;15.15;;
47715;SDS011;33476;50.984;3.538;2023-02-15T00:45:55;32.90;;;15.30;;
47715;SDS011;33476;50.984;3.538;2023-02-15T00:48:21;28.60;;;15.23;;
47715;SDS011;33476;50.984;3.538;2023-02-15T00:50:54;31.17;;;15.52;;
47715;SDS011;33476;50.984;3.538;2023-02-15T00:53:22;29.40;;;15.38;;
47715;SDS011;33476;50.984;3.538;2023-02-15T00:55:47;31.25;;;15.48;;
47715;SDS011;33476;50.984;3.538;2023-02-15T00:58:13;28.33;;;14.55;;
47715;SDS011;33476;50.984;3.538;2023-02-15T01:00:39;29.20;;;15.00;;
47715;SDS011;33476;50.984;3.538;2023-02-15T01:03:07;29.45;;;15.32;;
47715;SDS011;33476;50.984;3.538;2023-02-15T01:05:32;29.40;;;14.65;;
47715;SDS011;33476;50.984;3.538;2023-02-15T01:07:58;30.63;;;14.43;;
47715;SDS011;33476;50.984;3.538;2023-02-15T01:10:24;22.98;;;12.90;;
47715;SDS011;33476;50.984;3.538;2023-02-15T01:12:51;24.70;;;13.27;;
47715;SDS011;33476;50.984;3.538;2023-02-15T01:15:17;29.42;;;14.48;;
47715;SDS011;33476;50.984;3.538;2023-02-15T01:17:42;28.85;;;13.95;;
47715;SDS011;33476;50.984;3.538;2023-02-15T01:20:10;26.77;;;13.50;;
47715;SDS011;33476;50.984;3.538;2023-02-15T01:22:36;24.02;;;13.88;;
47715;SDS011;33476;50.984;3.538;2023-02-15T01:25:01;23.90;;;13.38;;
47715;SDS011;33476;50.984;3.538;2023-02-15T01:27:27;25.83;;;14.00;;
47715;SDS011;33476;50.984;3.538;2023-02-15T01:29:55;25.45;;;14.38;;
47715;SDS011;33476;50.984;3.538;2023-02-15T01:32:20;24.67;;;14.05;;
47715;SDS011;33476;50.984;3.538;2023-02-15T01:34:46;27.92;;;14.20;;
47715;SDS011;33476;50.984;3.538;2023-02-15T01:37:11;25.35;;;14.00;;
47715;SDS011;33476;50.984;3.538;2023-02-15T01:39:36;19.42;;;12.20;;
47715;SDS011;33476;50.984;3.538;2023-02-15T01:42:02;24.88;;;12.65;;
47715;SDS011;33476;50.984;3.538;2023-02-15T01:47:14;20.58;;;12.15;;
47715;SDS011;33476;50.984;3.538;2023-02-15T01:52:10;23.67;;;13.07;;
47715;SDS011;33476;50.984;3.538;2023-02-15T01:54:39;23.10;;;12.52;;
47715;SDS011;33476;50.984;3.538;2023-02-15T01:57:09;21.92;;;12.75;;
47715;SDS011;33476;50.984;3.538;2023-02-15T01:59:40;20.05;;;12.38;;
47715;SDS011;33476;50.984;3.538;2023-02-15T02:02:11;22.67;;;13.18;;
47715;SDS011;33476;50.984;3.538;2023-02-15T02:04:39;23.98;;;13.25;;
47715;SDS011;33476;50.984;3.538;2023-02-15T02:07:08;19.15;;;9.57;;
47715;SDS011;33476;50.984;3.538;2023-02-15T02:09:37;23.60;;;13.20;;
47715;SDS011;33476;50.984;3.538;2023-02-15T02:12:02;21.10;;;13.20;;
47715;SDS011;33476;50.984;3.538;2023-02-15T02:14:28;21.50;;;13.32;;
47715;SDS011;33476;50.984;3.538;2023-02-15T02:34:51;28.63;;;16.45;;
47715;SDS011;33476;50.984;3.538;2023-02-15T02:43:17;27.25;;;16.50;;
47715;SDS011;33476;50.984;3.538;2023-02-15T02:45:54;33.67;;;19.67;;
47715;SDS011;33476;50.984;3.538;2023-02-15T02:48:24;32.45;;;19.58;;
47715;SDS011;33476;50.984;3.538;2023-02-15T02:50:54;25.27;;;15.68;;
47715;SDS011;33476;50.984;3.538;2023-02-15T02:53:19;32.20;;;18.08;;
47715;SDS011;33476;50.984;3.538;2023-02-15T02:55:46;29.10;;;18.20;;
47715;SDS011;33476;50.984;3.538;2023-02-15T03:03:34;27.67;;;17.42;;
47715;SDS011;33476;50.984;3.538;2023-02-15T03:06:06;31.48;;;18.25;;
47715;SDS011;33476;50.984;3.538;2023-02-15T03:08:43;31.10;;;17.70;;
47715;SDS011;33476;50.984;3.538;2023-02-15T03:11:12;32.63;;;18.50;;
47715;SDS011;33476;50.984;3.538;2023-02-15T03:13:38;30.33;;;16.85;;
47715;SDS011;33476;50.984;3.538;2023-02-15T03:16:04;30.70;;;18.83;;
47715;SDS011;33476;50.984;3.538;2023-02-15T03:19:06;30.58;;;18.20;;
47715;SDS011;33476;50.984;3.538;2023-02-15T03:21:47;30.13;;;16.75;;
47715;SDS011;33476;50.984;3.538;2023-02-15T03:24:22;28.20;;;17.08;;
47715;SDS011;33476;50.984;3.538;2023-02-15T03:26:51;27.67;;;16.45;;
47715;SDS011;33476;50.984;3.538;2023-02-15T03:29:19;31.95;;;17.13;;
47715;SDS011;33476;50.984;3.538;2023-02-15T03:31:47;31.75;;;16.80;;
47715;SDS011;33476;50.984;3.538;2023-02-15T03:34:16;29.27;;;17.92;;
47715;SDS011;33476;50.984;3.538;2023-02-15T03:42:14;32.33;;;17.63;;
47715;SDS011;33476;50.984;3.538;2023-02-15T03:47:30;28.30;;;16.40;;
47715;SDS011;33476;50.984;3.538;2023-02-15T03:50:00;30.73;;;17.75;;
47715;SDS011;33476;50.984;3.538;2023-02-15T03:52:51;29.60;;;17.05;;
47715;SDS011;33476;50.984;3.538;2023-02-15T03:55:17;30.98;;;17.27;;
47715;SDS011;33476;50.984;3.538;2023-02-15T03:57:43;31.58;;;17.17;;
47715;SDS011;33476;50.984;3.538;2023-02-15T04:00:28;33.33;;;18.58;;
47715;SDS011;33476;50.984;3.538;2023-02-15T04:05:45;31.70;;;17.45;;
47715;SDS011;33476;50.984;3.538;2023-02-15T04:08:11;31.90;;;18.48;;
47715;SDS011;33476;50.984;3.538;2023-02-15T04:10:37;32.40;;;18.50;;
47715;SDS011;33476;50.984;3.538;2023-02-15T04:13:32;38.15;;;18.80;;
47715;SDS011;33476;50.984;3.538;2023-02-15T04:15:58;30.50;;;17.20;;
47715;SDS011;33476;50.984;3.538;2023-02-15T04:21:14;33.72;;;18.27;;
47715;SDS011;33476;50.984;3.538;2023-02-15T04:23:58;33.17;;;18.05;;
47715;SDS011;33476;50.984;3.538;2023-02-15T04:26:42;32.13;;;17.95;;
47715;SDS011;33476;50.984;3.538;2023-02-15T04:29:07;36.53;;;18.13;;
47715;SDS011;33476;50.984;3.538;2023-02-15T04:31:32;36.03;;;17.90;;
47715;SDS011;33476;50.984;3.538;2023-02-15T04:33:58;34.53;;;18.20;;
47715;SDS011;33476;50.984;3.538;2023-02-15T04:36:23;28.30;;;17.10;;
47715;SDS011;33476;50.984;3.538;2023-02-15T04:38:48;32.78;;;17.77;;
47715;SDS011;33476;50.984;3.538;2023-02-15T04:41:14;38.75;;;19.20;;
47715;SDS011;33476;50.984;3.538;2023-02-15T04:43:39;33.53;;;18.02;;
47715;SDS011;33476;50.984;3.538;2023-02-15T04:46:04;33.88;;;18.83;;
47715;SDS011;33476;50.984;3.538;2023-02-15T04:48:29;33.63;;;17.33;;
47715;SDS011;33476;50.984;3.538;2023-02-15T04:50:55;40.85;;;19.55;;
47715;SDS011;33476;50.984;3.538;2023-02-15T04:53:20;38.53;;;19.65;;
47715;SDS011;33476;50.984;3.538;2023-02-15T04:55:46;34.20;;;19.13;;
47715;SDS011;33476;50.984;3.538;2023-02-15T04:58:11;37.40;;;18.88;;
47715;SDS011;33476;50.984;3.538;2023-02-15T05:00:37;35.78;;;19.50;;
47715;SDS011;33476;50.984;3.538;2023-02-15T05:03:02;34.90;;;18.88;;
47715;SDS011;33476;50.984;3.538;2023-02-15T05:05:28;31.52;;;18.10;;
47715;SDS011;33476;50.984;3.538;2023-02-15T05:07:53;35.35;;;18.23;;
47715;SDS011;33476;50.984;3.538;2023-02-15T05:10:18;38.75;;;18.92;;
47715;SDS011;33476;50.984;3.538;2023-02-15T05:12:44;33.03;;;18.23;;
47715;SDS011;33476;50.984;3.538;2023-02-15T05:15:09;31.90;;;18.35;;
47715;SDS011;33476;50.984;3.538;2023-02-15T05:17:35;32.33;;;18.38;;
47715;SDS011;33476;50.984;3.538;2023-02-15T05:20:00;32.42;;;18.33;;
47715;SDS011;33476;50.984;3.538;2023-02-15T05:22:26;37.70;;;18.95;;
47715;SDS011;33476;50.984;3.538;2023-02-15T05:24:51;31.50;;;18.30;;
47715;SDS011;33476;50.984;3.538;2023-02-15T05:27:35;34.50;;;18.17;;
47715;SDS011;33476;50.984;3.538;2023-02-15T05:30:18;33.53;;;18.08;;
47715;SDS011;33476;50.984;3.538;2023-02-15T05:32:44;30.73;;;17.58;;
47715;SDS011;33476;50.984;3.538;2023-02-15T05:35:13;34.20;;;18.77;;
47715;SDS011;33476;50.984;3.538;2023-02-15T05:40:06;37.78;;;19.40;;
47715;SDS011;33476;50.984;3.538;2023-02-15T05:42:32;32.22;;;18.02;;
47715;SDS011;33476;50.984;3.538;2023-02-15T05:44:57;33.20;;;18.50;;
47715;SDS011;33476;50.984;3.538;2023-02-15T05:47:23;39.25;;;19.65;;
47715;SDS011;33476;50.984;3.538;2023-02-15T05:49:48;38.00;;;19.25;;
47715;SDS011;33476;50.984;3.538;2023-02-15T05:52:13;40.80;;;20.80;;
47715;SDS011;33476;50.984;3.538;2023-02-15T05:54:39;36.83;;;18.60;;
47715;SDS011;33476;50.984;3.538;2023-02-15T05:57:04;44.60;;;20.15;;
47715;SDS011;33476;50.984;3.538;2023-02-15T05:59:29;41.17;;;19.00;;
47715;SDS011;33476;50.984;3.538;2023-02-15T06:01:55;41.65;;;20.45;;
47715;SDS011;33476;50.984;3.538;2023-02-15T06:04:20;40.22;;;19.50;;
47715;SDS011;33476;50.984;3.538;2023-02-15T06:06:45;39.63;;;20.17;;
47715;SDS011;33476;50.984;3.538;2023-02-15T06:09:11;41.00;;;18.63;;
47715;SDS011;33476;50.984;3.538;2023-02-15T06:11:37;42.25;;;20.20;;
47715;SDS011;33476;50.984;3.538;2023-02-15T06:14:02;38.38;;;19.20;;
47715;SDS011;33476;50.984;3.538;2023-02-15T06:16:28;36.50;;;20.00;;
47715;SDS011;33476;50.984;3.538;2023-02-15T06:18:53;39.05;;;19.88;;
47715;SDS011;33476;50.984;3.538;2023-02-15T06:21:19;43.13;;;20.05;;
47715;SDS011;33476;50.984;3.538;2023-02-15T06:23:44;44.17;;;20.98;;
47715;SDS011;33476;50.984;3.538;2023-02-15T06:26:09;42.97;;;21.63;;
47715;SDS011;33476;50.984;3.538;2023-02-15T06:28:35;46.15;;;21.95;;
47715;SDS011;33476;50.984;3.538;2023-02-15T06:31:02;46.03;;;21.33;;
47715;SDS011;33476;50.984;3.538;2023-02-15T06:33:27;43.97;;;21.50;;
47715;SDS011;33476;50.984;3.538;2023-02-15T06:35:55;42.38;;;21.40;;
47715;SDS011;33476;50.984;3.538;2023-02-15T06:38:20;45.38;;;21.33;;
47715;SDS011;33476;50.984;3.538;2023-02-15T06:40:46;41.88;;;20.08;;
47715;SDS011;33476;50.984;3.538;2023-02-15T06:43:11;44.90;;;21.48;;
47715;SDS011;33476;50.984;3.538;2023-02-15T06:45:36;48.67;;;21.60;;
47715;SDS011;33476;50.984;3.538;2023-02-15T06:48:02;47.92;;;21.60;;
47715;SDS011;33476;50.984;3.538;2023-02-15T06:50:27;45.63;;;22.30;;
47715;SDS011;33476;50.984;3.538;2023-02-15T06:52:56;44.92;;;21.13;;
47715;SDS011;33476;50.984;3.538;2023-02-15T06:55:22;44.70;;;21.37;;
47715;SDS011;33476;50.984;3.538;2023-02-15T06:57:48;45.03;;;19.85;;
47715;SDS011;33476;50.984;3.538;2023-02-15T07:00:13;46.72;;;21.90;;
47715;SDS011;33476;50.984;3.538;2023-02-15T07:02:39;53.33;;;22.50;;
47715;SDS011;33476;50.984;3.538;2023-02-15T07:05:04;53.20;;;22.38;;
47715;SDS011;33476;50.984;3.538;2023-02-15T07:07:30;49.22;;;21.35;;
47715;SDS011;33476;50.984;3.538;2023-02-15T07:09:55;53.78;;;22.52;;
47715;SDS011;33476;50.984;3.538;2023-02-15T07:12:20;46.00;;;21.85;;
47715;SDS011;33476;50.984;3.538;2023-02-15T07:15:04;48.30;;;21.25;;
47715;SDS011;33476;50.984;3.538;2023-02-15T07:17:31;50.65;;;22.65;;
47715;SDS011;33476;50.984;3.538;2023-02-15T07:19:57;48.92;;;21.15;;
47715;SDS011;33476;50.984;3.538;2023-02-15T07:22:22;49.15;;;21.52;;
47715;SDS011;33476;50.984;3.538;2023-02-15T07:24:47;51.33;;;21.73;;
47715;SDS011;33476;50.984;3.538;2023-02-15T07:27:14;51.58;;;22.77;;
47715;SDS011;33476;50.984;3.538;2023-02-15T07:29:39;47.65;;;22.20;;
47715;SDS011;33476;50.984;3.538;2023-02-15T07:32:04;47.05;;;21.40;;
47715;SDS011;33476;50.984;3.538;2023-02-15T07:34:30;51.10;;;21.90;;
47715;SDS011;33476;50.984;3.538;2023-02-15T07:36:55;44.42;;;21.25;;
47715;SDS011;33476;50.984;3.538;2023-02-15T07:39:20;50.15;;;21.77;;
47715;SDS011;33476;50.984;3.538;2023-02-15T07:41:46;47.60;;;21.92;;
47715;SDS011;33476;50.984;3.538;2023-02-15T07:44:11;50.47;;;22.40;;
47715;SDS011;33476;50.984;3.538;2023-02-15T07:46:38;52.25;;;22.15;;
47715;SDS011;33476;50.984;3.538;2023-02-15T07:49:03;50.55;;;22.05;;
47715;SDS011;33476;50.984;3.538;2023-02-15T07:51:29;52.97;;;21.75;;
47715;SDS011;33476;50.984;3.538;2023-02-15T07:53:54;49.13;;;21.52;;
47715;SDS011;33476;50.984;3.538;2023-02-15T07:56:20;55.15;;;23.42;;
47715;SDS011;33476;50.984;3.538;2023-02-15T07:58:45;54.40;;;22.20;;
47715;SDS011;33476;50.984;3.538;2023-02-15T08:01:21;46.70;;;22.08;;
47715;SDS011;33476;50.984;3.538;2023-02-15T08:03:49;52.92;;;23.85;;
47715;SDS011;33476;50.984;3.538;2023-02-15T08:06:14;56.80;;;23.40;;
47715;SDS011;33476;50.984;3.538;2023-02-15T08:08:41;55.63;;;24.13;;
47715;SDS011;33476;50.984;3.538;2023-02-15T08:11:20;57.80;;;24.65;;
47715;SDS011;33476;50.984;3.538;2023-02-15T08:13:51;51.05;;;23.67;;
47715;SDS011;33476;50.984;3.538;2023-02-15T08:16:19;53.35;;;24.02;;
47715;SDS011;33476;50.984;3.538;2023-02-15T08:18:59;55.88;;;23.08;;
47715;SDS011;33476;50.984;3.538;2023-02-15T08:21:27;52.97;;;24.60;;
47715;SDS011;33476;50.984;3.538;2023-02-15T08:23:54;50.20;;;23.75;;
47715;SDS011;33476;50.984;3.538;2023-02-15T08:26:23;52.75;;;24.15;;
47715;SDS011;33476;50.984;3.538;2023-02-15T08:28:50;50.58;;;23.20;;
47715;SDS011;33476;50.984;3.538;2023-02-15T08:31:16;56.42;;;24.25;;
47715;SDS011;33476;50.984;3.538;2023-02-15T08:33:42;52.63;;;24.77;;
47715;SDS011;33476;50.984;3.538;2023-02-15T08:36:10;53.30;;;24.38;;
47715;SDS011;33476;50.984;3.538;2023-02-15T08:38:37;58.35;;;23.70;;
47715;SDS011;33476;50.984;3.538;2023-02-15T08:41:16;49.47;;;22.77;;
47715;SDS011;33476;50.984;3.538;2023-02-15T08:43:44;60.13;;;24.95;;
47715;SDS011;33476;50.984;3.538;2023-02-15T08:46:11;54.95;;;23.67;;
47715;SDS011;33476;50.984;3.538;2023-02-15T08:48:38;49.95;;;23.08;;
47715;SDS011;33476;50.984;3.538;2023-02-15T08:51:04;55.47;;;23.30;;
47715;SDS011;33476;50.984;3.538;2023-02-15T08:53:31;53.72;;;23.85;;
47715;SDS011;33476;50.984;3.538;2023-02-15T08:55:57;51.80;;;23.35;;
47715;SDS011;33476;50.984;3.538;2023-02-15T08:58:23;53.42;;;23.85;;
47715;SDS011;33476;50.984;3.538;2023-02-15T09:00:49;51.08;;;21.67;;
47715;SDS011;33476;50.984;3.538;2023-02-15T09:03:14;55.00;;;22.35;;
47715;SDS011;33476;50.984;3.538;2023-02-15T09:05:46;46.05;;;20.13;;
47715;SDS011;33476;50.984;3.538;2023-02-15T09:08:11;47.97;;;19.83;;
47715;SDS011;33476;50.984;3.538;2023-02-15T09:10:36;46.35;;;20.20;;
47715;SDS011;33476;50.984;3.538;2023-02-15T09:13:02;50.63;;;21.20;;
47715;SDS011;33476;50.984;3.538;2023-02-15T09:15:27;46.22;;;21.13;;
47715;SDS011;33476;50.984;3.538;2023-02-15T09:17:53;42.50;;;19.38;;
47715;SDS011;33476;50.984;3.538;2023-02-15T09:20:18;43.30;;;19.33;;
47715;SDS011;33476;50.984;3.538;2023-02-15T09:22:43;41.25;;;19.23;;
47715;SDS011;33476;50.984;3.538;2023-02-15T09:25:09;43.85;;;18.98;;
47715;SDS011;33476;50.984;3.538;2023-02-15T09:27:34;43.72;;;18.10;;
47715;SDS011;33476;50.984;3.538;2023-02-15T09:30:01;38.47;;;18.17;;
47715;SDS011;33476;50.984;3.538;2023-02-15T09:32:26;38.90;;;16.55;;
47715;SDS011;33476;50.984;3.538;2023-02-15T09:34:52;40.67;;;17.83;;
47715;SDS011;33476;50.984;3.538;2023-02-15T09:37:17;39.38;;;17.00;;
47715;SDS011;33476;50.984;3.538;2023-02-15T09:39:43;36.85;;;17.05;;
47715;SDS011;33476;50.984;3.538;2023-02-15T09:42:16;38.28;;;17.23;;
47715;SDS011;33476;50.984;3.538;2023-02-15T09:53:15;35.10;;;17.02;;
47715;SDS011;33476;50.984;3.538;2023-02-15T10:10:17;38.67;;;17.20;;
47715;SDS011;33476;50.984;3.538;2023-02-15T10:18:25;38.08;;;17.77;;
47715;SDS011;33476;50.984;3.538;2023-02-15T10:20:56;42.95;;;17.60;;
47715;SDS011;33476;50.984;3.538;2023-02-15T10:26:18;36.70;;;16.23;;
47715;SDS011;33476;50.984;3.538;2023-02-15T10:28:58;43.78;;;17.77;;
47715;SDS011;33476;50.984;3.538;2023-02-15T10:31:51;43.63;;;17.50;;
47715;SDS011;33476;50.984;3.538;2023-02-15T10:34:37;35.47;;;17.48;;
47715;SDS011;33476;50.984;3.538;2023-02-15T10:39:52;36.92;;;16.30;;
47715;SDS011;33476;50.984;3.538;2023-02-15T10:58:47;37.20;;;16.00;;
47715;SDS011;33476;50.984;3.538;2023-02-15T11:04:05;38.53;;;16.80;;
47715;SDS011;33476;50.984;3.538;2023-02-15T11:06:32;34.42;;;16.48;;
47715;SDS011;33476;50.984;3.538;2023-02-15T11:09:01;44.67;;;17.70;;
47715;SDS011;33476;50.984;3.538;2023-02-15T11:11:37;47.15;;;18.42;;
47715;SDS011;33476;50.984;3.538;2023-02-15T11:14:09;40.00;;;17.15;;
47715;SDS011;33476;50.984;3.538;2023-02-15T11:16:40;35.25;;;15.98;;
47715;SDS011;33476;50.984;3.538;2023-02-15T11:21:44;37.45;;;15.57;;
47715;SDS011;33476;50.984;3.538;2023-02-15T11:24:15;32.13;;;15.32;;
47715;SDS011;33476;50.984;3.538;2023-02-15T11:29:31;39.20;;;16.67;;
47715;SDS011;33476;50.984;3.538;2023-02-15T11:37:51;37.38;;;17.23;;
47715;SDS011;33476;50.984;3.538;2023-02-15T11:42:48;40.13;;;17.17;;
47715;SDS011;33476;50.984;3.538;2023-02-15T11:45:32;32.55;;;15.73;;
47715;SDS011;33476;50.984;3.538;2023-02-15T11:48:08;37.13;;;16.77;;
47715;SDS011;33476;50.984;3.538;2023-02-15T11:50:35;36.00;;;16.77;;
47715;SDS011;33476;50.984;3.538;2023-02-15T11:53:03;35.40;;;16.45;;
47715;SDS011;33476;50.984;3.538;2023-02-15T11:55:31;34.65;;;16.52;;
47715;SDS011;33476;50.984;3.538;2023-02-15T12:00:45;35.72;;;17.65;;
47715;SDS011;33476;50.984;3.538;2023-02-15T12:06:18;35.60;;;16.48;;
47715;SDS011;33476;50.984;3.538;2023-02-15T12:08:51;35.35;;;16.83;;
47715;SDS011;33476;50.984;3.538;2023-02-15T12:11:22;32.03;;;16.00;;
47715;SDS011;33476;50.984;3.538;2023-02-15T12:14:01;37.05;;;16.73;;
47715;SDS011;33476;50.984;3.538;2023-02-15T12:16:31;37.80;;;16.52;;
47715;SDS011;33476;50.984;3.538;2023-02-15T12:19:09;38.95;;;16.23;;
47715;SDS011;33476;50.984;3.538;2023-02-15T12:21:46;31.55;;;16.40;;
47715;SDS011;33476;50.984;3.538;2023-02-15T12:24:17;40.47;;;16.58;;
47715;SDS011;33476;50.984;3.538;2023-02-15T12:26:55;35.13;;;16.75;;
47715;SDS011;33476;50.984;3.538;2023-02-15T12:29:42;37.38;;;17.13;;
47715;SDS011;33476;50.984;3.538;2023-02-15T12:32:17;39.70;;;17.45;;
47715;SDS011;33476;50.984;3.538;2023-02-15T12:34:47;34.25;;;15.98;;
47715;SDS011;33476;50.984;3.538;2023-02-15T12:37:16;37.72;;;17.20;;
47715;SDS011;33476;50.984;3.538;2023-02-15T12:42:18;38.90;;;15.70;;
47715;SDS011;33476;50.984;3.538;2023-02-15T12:45:03;35.03;;;15.75;;
47715;SDS011;33476;50.984;3.538;2023-02-15T12:47:44;36.75;;;16.00;;
47715;SDS011;33476;50.984;3.538;2023-02-15T12:50:22;39.90;;;17.25;;
47715;SDS011;33476;50.984;3.538;2023-02-15T12:53:02;38.63;;;17.50;;
47715;SDS011;33476;50.984;3.538;2023-02-15T12:55:54;42.13;;;16.95;;
47715;SDS011;33476;50.984;3.538;2023-02-15T12:58:23;36.67;;;16.55;;
47715;SDS011;33476;50.984;3.538;2023-02-15T13:03:34;38.25;;;16.83;;
47715;SDS011;33476;50.984;3.538;2023-02-15T13:06:00;37.78;;;17.23;;
47715;SDS011;33476;50.984;3.538;2023-02-15T13:08:33;36.70;;;17.05;;
47715;SDS011;33476;50.984;3.538;2023-02-15T13:11:08;35.38;;;16.85;;
47715;SDS011;33476;50.984;3.538;2023-02-15T13:13:38;35.05;;;16.13;;
47715;SDS011;33476;50.984;3.538;2023-02-15T13:16:16;39.42;;;17.83;;
47715;SDS011;33476;50.984;3.538;2023-02-15T13:18:49;32.47;;;16.13;;
47715;SDS011;33476;50.984;3.538;2023-02-15T13:21:28;33.33;;;16.48;;
47715;SDS011;33476;50.984;3.538;2023-02-15T13:26:54;40.38;;;17.55;;
47715;SDS011;33476;50.984;3.538;2023-02-15T13:29:26;35.85;;;17.30;;
47715;SDS011;33476;50.984;3.538;2023-02-15T13:31:53;34.22;;;16.48;;
47715;SDS011;33476;50.984;3.538;2023-02-15T13:34:22;37.60;;;18.08;;
47715;SDS011;33476;50.984;3.538;2023-02-15T13:42:27;37.47;;;17.48;;
47715;SDS011;33476;50.984;3.538;2023-02-15T13:47:52;39.92;;;18.50;;
47715;SDS011;33476;50.984;3.538;2023-02-15T13:55:50;39.25;;;19.13;;
47715;SDS011;33476;50.984;3.538;2023-02-15T14:26:24;39.03;;;17.85;;
47715;SDS011;33476;50.984;3.538;2023-02-15T14:29:19;38.78;;;17.40;;
47715;SDS011;33476;50.984;3.538;2023-02-15T14:31:54;36.03;;;17.13;;
47715;SDS011;33476;50.984;3.538;2023-02-15T14:34:33;39.63;;;17.80;;
47715;SDS011;33476;50.984;3.538;2023-02-15T14:37:08;43.67;;;18.20;;
47715;SDS011;33476;50.984;3.538;2023-02-15T14:39:42;36.40;;;17.65;;
47715;SDS011;33476;50.984;3.538;2023-02-15T14:42:49;39.38;;;18.00;;
47715;SDS011;33476;50.984;3.538;2023-02-15T14:45:28;38.97;;;17.92;;
47715;SDS011;33476;50.984;3.538;2023-02-15T14:48:28;36.47;;;16.50;;
47715;SDS011;33476;50.984;3.538;2023-02-15T14:50:58;38.92;;;17.88;;
47715;SDS011;33476;50.984;3.538;2023-02-15T14:58:35;38.55;;;16.98;;
47715;SDS011;33476;50.984;3.538;2023-02-15T15:01:06;36.55;;;16.70;;
47715;SDS011;33476;50.984;3.538;2023-02-15T15:03:33;38.60;;;17.45;;
47715;SDS011;33476;50.984;3.538;2023-02-15T15:06:01;33.28;;;17.38;;
47715;SDS011;33476;50.984;3.538;2023-02-15T15:08:33;37.10;;;17.52;;
47715;SDS011;33476;50.984;3.538;2023-02-15T15:14:09;38.83;;;18.30;;
47715;SDS011;33476;50.984;3.538;2023-02-15T15:16:55;38.00;;;17.70;;
47715;SDS011;33476;50.984;3.538;2023-02-15T15:19:57;38.20;;;17.73;;
47715;SDS011;33476;50.984;3.538;2023-02-15T15:22:23;38.05;;;17.52;;
47715;SDS011;33476;50.984;3.538;2023-02-15T15:24:53;42.88;;;18.05;;
47715;SDS011;33476;50.984;3.538;2023-02-15T15:30:49;38.38;;;17.30;;
47715;SDS011;33476;50.984;3.538;2023-02-15T15:40:48;42.72;;;18.10;;
47715;SDS011;33476;50.984;3.538;2023-02-15T15:46:13;36.03;;;17.52;;
47715;SDS011;33476;50.984;3.538;2023-02-15T15:48:49;35.80;;;17.33;;
47715;SDS011;33476;50.984;3.538;2023-02-15T15:51:49;40.15;;;17.50;;
47715;SDS011;33476;50.984;3.538;2023-02-15T15:54:17;42.92;;;16.92;;
47715;SDS011;33476;50.984;3.538;2023-02-15T15:56:48;40.85;;;18.42;;
47715;SDS011;33476;50.984;3.538;2023-02-15T15:59:21;39.58;;;18.38;;
47715;SDS011;33476;50.984;3.538;2023-02-15T16:01:49;39.03;;;16.95;;
47715;SDS011;33476;50.984;3.538;2023-02-15T16:04:25;41.47;;;17.38;;
47715;SDS011;33476;50.984;3.538;2023-02-15T16:06:54;38.40;;;17.60;;
47715;SDS011;33476;50.984;3.538;2023-02-15T16:09:22;35.35;;;17.48;;
47715;SDS011;33476;50.984;3.538;2023-02-15T16:11:53;40.42;;;17.35;;
47715;SDS011;33476;50.984;3.538;2023-02-15T16:14:28;39.05;;;18.33;;
47715;SDS011;33476;50.984;3.538;2023-02-15T16:16:59;43.75;;;18.38;;
47715;SDS011;33476;50.984;3.538;2023-02-15T16:19:27;37.92;;;17.75;;
47715;SDS011;33476;50.984;3.538;2023-02-15T16:21:59;41.83;;;17.88;;
47715;SDS011;33476;50.984;3.538;2023-02-15T16:29:50;39.55;;;17.85;;
47715;SDS011;33476;50.984;3.538;2023-02-15T16:37:19;37.08;;;17.98;;
47715;SDS011;33476;50.984;3.538;2023-02-15T16:39:48;37.47;;;17.42;;
47715;SDS011;33476;50.984;3.538;2023-02-15T16:42:14;34.17;;;17.35;;
47715;SDS011;33476;50.984;3.538;2023-02-15T16:44:41;36.47;;;18.10;;
47715;SDS011;33476;50.984;3.538;2023-02-15T16:47:16;39.75;;;19.10;;
47715;SDS011;33476;50.984;3.538;2023-02-15T16:49:54;45.38;;;20.30;;
47715;SDS011;33476;50.984;3.538;2023-02-15T16:52:23;44.33;;;21.40;;
47715;SDS011;33476;50.984;3.538;2023-02-15T16:54:53;43.97;;;17.92;;
47715;SDS011;33476;50.984;3.538;2023-02-15T16:57:21;38.55;;;19.17;;
47715;SDS011;33476;50.984;3.538;2023-02-15T16:59:52;30.57;;;14.17;;
47715;SDS011;33476;50.984;3.538;2023-02-15T17:02:22;41.20;;;18.48;;
47715;SDS011;33476;50.984;3.538;2023-02-15T17:05:23;42.40;;;19.20;;
47715;SDS011;33476;50.984;3.538;2023-02-15T17:08:04;44.33;;;19.48;;
47715;SDS011;33476;50.984;3.538;2023-02-15T17:10:40;42.88;;;18.90;;
47715;SDS011;33476;50.984;3.538;2023-02-15T17:13:11;40.00;;;18.80;;
47715;SDS011;33476;50.984;3.538;2023-02-15T17:18:15;42.90;;;19.35;;
47715;SDS011;33476;50.984;3.538;2023-02-15T17:20:43;41.85;;;19.13;;
47715;SDS011;33476;50.984;3.538;2023-02-15T17:23:43;38.50;;;18.35;;
47715;SDS011;33476;50.984;3.538;2023-02-15T17:28:44;42.60;;;19.52;;
47715;SDS011;33476;50.984;3.538;2023-02-15T17:31:12;42.35;;;19.20;;
47715;SDS011;33476;50.984;3.538;2023-02-15T17:33:41;43.88;;;19.05;;
47715;SDS011;33476;50.984;3.538;2023-02-15T17:38:33;41.03;;;17.27;;
47715;SDS011;33476;50.984;3.538;2023-02-15T17:40:59;43.70;;;18.10;;
47715;SDS011;33476;50.984;3.538;2023-02-15T17:43:25;41.03;;;18.80;;
47715;SDS011;33476;50.984;3.538;2023-02-15T17:45:50;41.95;;;18.98;;
47715;SDS011;33476;50.984;3.538;2023-02-15T17:50:48;41.03;;;19.00;;
47715;SDS011;33476;50.984;3.538;2023-02-15T17:53:17;38.80;;;18.88;;
47715;SDS011;33476;50.984;3.538;2023-02-15T17:55:43;42.90;;;19.98;;
47715;SDS011;33476;50.984;3.538;2023-02-15T17:58:10;45.72;;;20.63;;
47715;SDS011;33476;50.984;3.538;2023-02-15T18:00:38;48.83;;;20.40;;
47715;SDS011;33476;50.984;3.538;2023-02-15T18:06:44;48.28;;;19.85;;
47715;SDS011;33476;50.984;3.538;2023-02-15T18:09:28;49.63;;;20.83;;
47715;SDS011;33476;50.984;3.538;2023-02-15T18:14:43;48.50;;;20.42;;
47715;SDS011;33476;50.984;3.538;2023-02-15T18:17:09;46.33;;;20.33;;
47715;SDS011;33476;50.984;3.538;2023-02-15T18:19:37;45.53;;;20.00;;